-JavaCPC -demo -emu -j-cpc_ani -tools 0-9 A B C D E F G H I J K L M N O P Q R S T U V W X Y Z roms
FILEDATESIZEDLs
KTris by Richard Wilson (PD).zip 2017-04-21 16:14 2 Kb173
Kaiser (G) (19xx).zip 2017-04-21 16:13 91 Kb191
Kane & Nebulus & Renaud - Marche a l'Ombre.zip 2017-04-21 16:13 95 Kb102
Kane (UK) (1986).zip 2017-04-21 16:13 28 Kb161
Kane (UK) (1986) [a1].zip 2017-04-21 16:13 80 Kb176
Kane (UK) (1986) [a2].zip 2017-04-21 16:13 38 Kb158
Kane (UK) (1986) [t1].zip 2017-04-21 16:13 38 Kb174
Karateka (F) (1986).zip 2017-04-21 16:13 50 Kb168
Karateka (F) (1986) [f1].zip 2017-04-21 16:13 50 Kb169
Karateka (F) (1986) [t1].zip 2017-04-21 16:13 50 Kb169
Karateka (F) (1990).zip 2017-04-21 16:13 49 Kb169
Karateka (F) (1990) [t1].zip 2017-04-21 16:13 49 Kb162
Karateka (F).dsk 2017-04-21 16:13 192 Kb172
Karl's Treasure Hunt (UK) (1984).zip 2017-04-21 16:13 11 Kb164
Karl's Treasure Hunt (UK) (1984) [a1].zip 2017-04-21 16:13 84 Kb164
Karl's Treasure Hunt (UK) (1984) [a2].zip 2017-04-21 16:13 11 Kb158
Karnov (E) - Disk 1A.dsk 2017-04-21 16:13 214 Kb161
Karnov (E) - Disk 1B.dsk 2017-04-21 16:13 214 Kb158
Karnov (UK) (1988) (Disk 1 of 2).zip 2017-04-21 16:13 73 Kb156
Karnov (UK) (1988) (Disk 1 of 2) [a1].zip 2017-04-21 16:13 56 Kb152
Karnov (UK) (1988) (Disk 1 of 2) [t1].zip 2017-04-21 16:13 159 Kb169
Karnov (UK) (1988) (Disk 1 of 2) [t2].zip 2017-04-21 16:13 73 Kb152
Karnov (UK) (1988) (Disk 2 of 2).zip 2017-04-21 16:13 62 Kb161
Karnov (UK) (1988) (Disk 2 of 2) [a1].zip 2017-04-21 16:13 105 Kb159
Karnov (UK) (1988) (Disk 2 of 2) [t2].zip 2017-04-21 16:13 62 Kb192
Kat Trap (E).dsk 2017-04-21 16:13 91 Kb158
Kat Trap (UK) (1987).zip 2017-04-21 16:13 34 Kb164
Keep Yourself Alive (F) (1987).zip 2017-04-21 16:13 19 Kb166
Kenny Dalglish Soccer Manager (E).cdt 2017-04-21 16:13 57 Kb173
Kenny Dalglish Soccer Manager (UK) (1989).zip 2017-04-21 16:13 25 Kb162
Kenny Dalglish Soccer Match (UK) (1990).zip 2017-04-21 16:13 29 Kb162
Kentilla (UK) (1985).zip 2017-04-21 16:13 23 Kb165
Kentilla (UK) (1985) [a1].zip 2017-04-21 16:13 30 Kb164
Kentucky Racing (E).cdt 2017-04-21 16:13 45 Kb170
Kentucky Racing (UK) (1990).zip 2017-04-21 16:13 24 Kb158
Kentucky Racing (UK) (1990) [f1].zip 2017-04-21 16:13 24 Kb167
Kessia (F) (19xx).zip 2017-04-21 16:13 72 Kb160
Kettle (E).dsk 2017-04-21 16:13 193 Kb156
Kettle (UK) (1986).zip 2017-04-21 16:13 21 Kb168
Kevin Thacker's CPC Guide (UK) (19xx) (PD) (Disk 1 of 2).zip 2017-04-21 16:13 47 Kb154
Kevin Thacker's CPC Guide (UK) (19xx) (PD) (Disk 2 of 2).zip 2017-04-21 16:13 41 Kb157
Key Factor, The (UK) (1985).zip 2017-04-21 16:13 13 Kb162
Kick Off (UK,F,G,S,I) (1990).zip 2017-04-21 16:13 27 Kb162
Kick Off (UK,F,G,S,I) (1990) [a1].zip 2017-04-21 16:13 131 Kb159
Kick Off (UK,F,G,S,I) (1990) [a2].zip 2017-04-21 16:13 31 Kb154
Kick Off 2 (E) - Disk 1A.dsk 2017-04-21 16:13 178 Kb174
Kick Off 2 (E) - Disk 1B.dsk 2017-04-21 16:13 178 Kb166
Kick Off 2 (F) (1990).zip 2017-04-21 16:13 68 Kb162
Kick Off 2 (F) (1990) [a1].zip 2017-04-21 16:13 68 Kb165
Kikstart II (UK) (1988).zip 2017-04-21 16:13 24 Kb164
Kikstart II (UK) (1988) [a1].zip 2017-04-21 16:13 23 Kb171
Killapede (UK) (1986).zip 2017-04-21 16:13 26 Kb160
Killapede (UK) (1986) [a1].zip 2017-04-21 16:13 26 Kb157
Killapede (UK) (1986) [a2].zip 2017-04-21 16:13 32 Kb171
Killapede (UK) (1986) [a3].zip 2017-04-21 16:13 30 Kb192
Killed Until Dead (UK) (1987) (Disk 1 of 2).zip 2017-04-21 16:13 50 Kb152
Killed Until Dead (UK) (1987) (Disk 2 of 2).zip 2017-04-21 16:13 62 Kb158
Killer Ball (UK) (1991).zip 2017-04-21 16:14 103 Kb160
Killer Ball (UK) (1991) [a1].zip 2017-04-21 16:13 103 Kb160
Killer Ball (UK) (1991) [a2].zip 2017-04-21 16:13 76 Kb159
Killer Ball (UK) (1991) [a3].zip 2017-04-21 16:13 96 Kb156
Killer Cobra (E).cdt 2017-04-21 16:14 49 Kb159
Killer Cobra (UK) (1987).zip 2017-04-21 16:14 27 Kb161
Killer Cobra (UK) (1987) [a1].zip 2017-04-21 16:14 27 Kb160
Killer Cobra (UK) (1987) [a2].zip 2017-04-21 16:14 31 Kb156
Killer Gorilla & Knight Lore & Laserwarp & Molecule Man & Zaxx (F).zip 2017-04-21 16:14 82 Kb105
Killer Gorilla (UK) (1984).zip 2017-04-21 16:14 19 Kb163
Killer Gorilla (UK) (1984) [a1].zip 2017-04-21 16:14 19 Kb169
Killer Gorilla (UK) (1984) [a2].zip 2017-04-21 16:14 15 Kb172
Killer Gorilla (UK) (1984) [a3].zip 2017-04-21 16:14 18 Kb163
Killer Gorilla (UK) (1984) [b1].zip 2017-04-21 16:14 19 Kb162
Killer Gorilla (UK) (1984) [b2].zip 2017-04-21 16:14 19 Kb164
Killer Ring (UK) (1987).zip 2017-04-21 16:14 16 Kb165
Killer Ring (UK) (1987) [a1].zip 2017-04-21 16:14 16 Kb167
Kiloroid (UK) (19xx).zip 2017-04-21 16:14 2 Kb158
Kim (F) (1986).zip 2017-04-21 16:14 9 Kb161
Kinetic (UK) (1987).zip 2017-04-21 16:14 35 Kb158
Kinetic (UK) (1987) [a1].zip 2017-04-21 16:14 36 Kb165
Kinetic (UK) (1987) [a2].zip 2017-04-21 16:14 35 Kb168
Kinetik (E).dsk 2017-04-21 16:14 195 Kb175
Kingdom of Hamil (UK) (1987).zip 2017-04-21 16:14 57 Kb159
Kingdoms (UK) (1985).zip 2017-04-21 16:14 5 Kb160
Kit de Telechargement - Telecharge Amstrad CPC (F).dsk 2017-04-21 16:14 217 Kb168
Kit de Telechargement pour Amstrad CPC (F).dsk 2017-04-21 16:14 191 Kb183
Klax & Meynaumede (F) & Nervous Break Down (F) & Skweek.zip 2017-04-21 16:14 97 Kb106
Klax (E).dsk 2017-04-21 16:14 172 Kb163
Klax (UK) (1990) (CPM).zip 2017-04-21 16:14 44 Kb156
Klax (UK) (1990) (CPM) [a1].zip 2017-04-21 16:14 44 Kb172
Klax (UK) (1990) (CPM Version).zip 2017-04-21 16:14 43 Kb155
Klax (UK) (1990) (CPM Version) [a1].zip 2017-04-21 16:14 43 Kb164
Klax (UK) (1990) (Cart).zip 2017-04-21 16:14 41 Kb168
Klax (UK) (1990).zip 2017-04-21 16:14 42 Kb156
Klax (UK) (1990) [a1].zip 2017-04-21 16:14 42 Kb169
Klax (UK) (1990) [h1].zip 2017-04-21 16:14 52 Kb157
Klax (UK) (1990) [h2].zip 2017-04-21 16:14 54 Kb163
Knaves and thou Prisoners (UK) (19xx).zip 2017-04-21 16:14 8 Kb155
Knight Force (F) (1989) (Disk 1 of 2).zip 2017-04-21 16:14 54 Kb161
Knight Force (F) (1989) (Disk 1 of 2) [t1].zip 2017-04-21 16:14 55 Kb156
Knight Force (F) (1989) (Disk 1 of 2) [t2] & Power Drift.zip 2017-04-21 16:14 108 Kb97
Knight Force (F) (1989) (Disk 1 of 2) [t2].zip 2017-04-21 16:14 75 Kb154
Knight Force (F) (1989) (Disk 2 of 2).zip 2017-04-21 16:14 76 Kb163
Knight Force (F) - Disk 1A.dsk 2017-04-21 16:14 456 Kb164
Knight Force (F) - Disk 1B.dsk 2017-04-21 16:14 627 Kb164
Knight Games (E) - Side A.cdt 2017-04-21 16:14 166 Kb170
Knight Games (E) - Side B.cdt 2017-04-21 16:14 142 Kb157
Knight Games (UK) (1986) (Disk 1 of 2).zip 2017-04-21 16:14 88 Kb164
Knight Games (UK) (1986) (Disk 1 of 2) [a1].zip 2017-04-21 16:14 83 Kb155
Knight Games (UK) (1986) (Disk 1 of 2) [a2].zip 2017-04-21 16:14 83 Kb154
Knight Games (UK) (1986) (Disk 1 of 2) [a3].zip 2017-04-21 16:14 103 Kb147
Knight Games (UK) (1986) (Disk 2 of 2).zip 2017-04-21 16:14 94 Kb166
Knight Games (UK) (1986) (Disk 2 of 2) [a1].zip 2017-04-21 16:14 76 Kb155
Knight Games (UK) (1986) (Disk 2 of 2) [a2].zip 2017-04-21 16:14 79 Kb153
Knight Games (UK) (1986) (Disk 2 of 2) [a3].zip 2017-04-21 16:14 109 Kb155
Knight Games (UK) (1986) [f1][t1].zip 2017-04-21 16:14 179 Kb160
Knight Lore (E).cdt 2017-04-21 16:14 42 Kb161
Knight Lore (UK) (1984).zip 2017-04-21 16:14 25 Kb166
Knight Lore (UK) (1984) [a1].zip 2017-04-21 16:14 25 Kb168
Knight Lore (UK) (1984) [a2].zip 2017-04-21 16:14 25 Kb167
Knight Moves (F) (19xx) (Disk 1 of 2).zip 2017-04-21 16:14 60 Kb161
Knight Moves (F) (19xx) (Disk 2 of 2).zip 2017-04-21 16:14 83 Kb163
Knight Orc (E) - Disk 1A.dsk 2017-04-21 16:14 194 Kb164
Knight Orc (E) - Disk 1B.dsk 2017-04-21 16:14 199 Kb164
Knight Orc (UK) (1987) (Disk 1 of 2).zip 2017-04-21 16:14 119 Kb173
Knight Orc (UK) (1987) (Disk 2 of 2).zip 2017-04-21 16:14 110 Kb166
Knight Rider (E).cdt 2017-04-21 16:14 45 Kb167
Knight Rider (UK) (1986).zip 2017-04-21 16:14 20 Kb160
Knight Rider (UK) (1986) [h1].zip 2017-04-21 16:14 32 Kb160
Knight Rider (UK) (1986) [h2].zip 2017-04-21 16:14 21 Kb166
Knight Tyme (E).cdt 2017-04-21 16:14 57 Kb167
Knight Tyme (UK) (1986).zip 2017-04-21 16:14 31 Kb170
Knight Tyme (UK) (1986) [a1].zip 2017-04-21 16:14 31 Kb166
Knight Tyme (UK) (1986) [t1].zip 2017-04-21 16:14 31 Kb157
Knightmare (E).dsk 2017-04-21 16:14 213 Kb175
Knightmare (UK) (1987).zip 2017-04-21 16:14 29 Kb160
Knightmare (UK) (1987) [a1].zip 2017-04-21 16:14 30 Kb159
Knightmare (UK) (1987) [a2].zip 2017-04-21 16:14 30 Kb168
Knightmare (UK) (1987) [t1].zip 2017-04-21 16:14 33 Kb162
Know (G).dsk 2017-04-21 16:14 192 Kb178
Kobayashi Naru (UK) (19xx).zip 2017-04-21 16:14 31 Kb172
Kobayashi Naru (UK) (1987).zip 2017-04-21 16:14 31 Kb176
Kobayashi Naru (UK) (1987) [a1].zip 2017-04-21 16:14 31 Kb163
Kobayashi Naru (UK) (1987) [a2].zip 2017-04-21 16:14 48 Kb183
Kokotoni Wilf (UK) (19xx).zip 2017-04-21 16:14 137 Kb170
Kokotoni Wilf (UK) (19xx) [a1].zip 2017-04-21 16:14 35 Kb170
Kokotoni Wilf (UK) (19xx) [f1][t1].zip 2017-04-21 16:14 37 Kb162
Konami's Golf (UK) (1986).zip 2017-04-21 16:14 24 Kb158
Konami's Golf (UK) (1986) [a1].zip 2017-04-21 16:14 24 Kb163
Konami's Golf (UK) (1986) [a2].zip 2017-04-21 16:14 26 Kb165
Konami Coin-op Hits (UK) (19xx) (Disk 1 of 2).zip 2017-04-21 16:14 50 Kb165
Konami Coin-op Hits (UK) (19xx) (Disk 1 of 2) [a1].zip 2017-04-21 16:14 50 Kb152
Konami Coin-op Hits (UK) (19xx) (Disk 2 of 2).zip 2017-04-21 16:14 65 Kb156
Konami Coin-op Hits (UK) (19xx) (Disk 2 of 2) [a1].zip 2017-04-21 16:14 65 Kb175
Konami Coin-op Hits (UK) (19xx) (Disk 2 of 2) [a2].zip 2017-04-21 16:14 65 Kb156
Kong Strikes Back (UK) (1985).zip 2017-04-21 16:14 21 Kb178
Kong Strikes Back (UK) (1985) [a1].zip 2017-04-21 16:14 21 Kb175
Kong Strikes Back (UK) (1985) [a2].zip 2017-04-21 16:14 23 Kb164
Koronis Rift (E).dsk 2017-04-21 16:14 186 Kb168
Koronis Rift (UK) (1987).zip 2017-04-21 16:14 57 Kb166
Krakout (E).cdt 2017-04-21 16:14 64 Kb175
Krakout (E).dsk 2017-04-21 16:14 171 Kb168
Krakout (UK) (1987).zip 2017-04-21 16:14 31 Kb168
Krakout (UK) (1987) [h1].zip 2017-04-21 16:14 34 Kb167
Kristal (F).dsk 2017-04-21 16:14 191 Kb168
Kristal (UK) (1985).zip 2017-04-21 16:14 16 Kb173
Kristax (UK) (1989).zip 2017-04-21 16:14 9 Kb171
Krypton Factor (UK) (1987) (Disk 1 of 2).zip 2017-04-21 16:14 52 Kb157
Krypton Factor (UK) (1987) (Disk 1 of 2) [a1].zip 2017-04-21 16:14 47 Kb166
Krypton Factor (UK) (1987) (Disk 2 of 2).zip 2017-04-21 16:14 5 Kb164
Krypton Factor (UK) (1987) (Disk 2 of 2) [a1].zip 2017-04-21 16:14 21 Kb161
Kung-Fu (UK) (1986).zip 2017-04-21 16:14 19 Kb165
Kung-Fu Master (E).dsk 2017-04-21 16:14 191 Kb159
Kung-Fu Master (UK) (1986).zip 2017-04-21 16:14 28 Kb175
Kung-Fu Master (UK) (1986) [h1].zip 2017-04-21 16:14 22 Kb165
Kwah (UK) (1987).zip 2017-04-21 16:14 36 Kb152
Kwik Snax (E).cdt 2017-04-21 16:14 65 Kb177
Kwik Snax (UK) (1990).zip 2017-04-21 16:14 22 Kb159
Kwik Snax (UK) (1990) [f1].zip 2017-04-21 16:14 33 Kb172
Kwik Snax (UK) (1990) [h1].zip 2017-04-21 16:14 41 Kb166
Kwik Snax (UK) (1990) [t1].zip 2017-04-21 16:14 33 Kb167
kobayashi Naru (E).cdt 2017-04-21 16:14 74 Kb165
180 Files
-JavaCPC -demo -emu -j-cpc_ani -tools 0-9 A B C D E F G H I J K L M N O P Q R S T U V W X Y Z roms